createdAt,value
2022-08-09T00:01:37.814Z,60
2022-08-09T00:04:49.972Z,59.7
2022-08-09T00:08:02.125Z,59
2022-08-09T00:11:14.279Z,59.4
2022-08-09T00:14:26.423Z,59.5
2022-08-09T00:17:38.576Z,59.8
2022-08-09T00:20:49.765Z,61.2
2022-08-09T00:24:00.932Z,60.7
2022-08-09T00:27:12.093Z,60.7
2022-08-09T00:30:23.274Z,60.7
2022-08-09T00:33:35.428Z,60.4
2022-08-09T00:36:47.580Z,61.2
2022-08-09T00:39:59.725Z,61.7
2022-08-09T00:43:11.882Z,61.5
2022-08-09T00:46:24.025Z,61.2
2022-08-09T00:49:36.170Z,60.8
2022-08-09T00:52:48.330Z,61.2
2022-08-09T00:56:00.474Z,61.2
2022-08-09T00:59:12.636Z,61.6
2022-08-09T01:02:24.776Z,61.2
2022-08-09T01:05:36.928Z,62
2022-08-09T01:08:49.081Z,62.1
2022-08-09T01:12:00.248Z,62.6
2022-08-09T01:15:12.402Z,62.3
2022-08-09T01:18:24.547Z,62.3
2022-08-09T01:21:36.710Z,62
2022-08-09T01:24:48.856Z,62.4
2022-08-09T01:28:01.001Z,62.2
2022-08-09T01:31:13.159Z,62.2
2022-08-09T01:34:24.333Z,62.3
2022-08-09T01:37:35.510Z,63.7
2022-08-09T01:40:47.655Z,62.1
2022-08-09T01:43:59.800Z,63.1
2022-08-09T01:47:10.990Z,63
2022-08-09T01:50:22.146Z,62.1
2022-08-09T01:53:34.300Z,62.6
2022-08-09T01:56:46.459Z,62.5
2022-08-09T01:59:58.608Z,62.6
2022-08-09T02:03:10.750Z,63
2022-08-09T02:06:22.904Z,63.4
2022-08-09T02:09:35.069Z,63.4
2022-08-09T02:12:47.226Z,63.5
2022-08-09T02:15:59.357Z,63.5
2022-08-09T02:19:11.512Z,64.1
2022-08-09T02:22:23.676Z,64.1
2022-08-09T02:25:35.818Z,64
2022-08-09T02:28:47.978Z,64
2022-08-09T02:31:59.145Z,64.2
2022-08-09T02:35:11.291Z,64
2022-08-09T02:38:23.453Z,64.4
2022-08-09T02:41:35.604Z,63.7
2022-08-09T02:44:47.756Z,63.7
2022-08-09T02:47:59.901Z,64.1
2022-08-09T02:51:12.061Z,63.9
2022-08-09T02:54:23.226Z,64.2
2022-08-09T02:57:34.419Z,64.1
2022-08-09T03:00:46.565Z,63.8
2022-08-09T03:03:58.712Z,63.6
2022-08-09T03:07:10.864Z,63.9
2022-08-09T03:10:23.023Z,64
2022-08-09T03:13:35.173Z,63.8
2022-08-09T03:16:47.325Z,64
2022-08-09T03:19:59.474Z,64.3
2022-08-09T03:23:11.616Z,64.2
2022-08-09T03:26:23.770Z,64.3
2022-08-09T03:29:35.925Z,64.8
2022-08-09T03:32:48.000Z,64.8
2022-08-09T03:36:00.223Z,64.8
2022-08-09T03:39:11.391Z,64.3
2022-08-09T03:42:23.539Z,64.4
2022-08-09T03:45:35.699Z,64.6
2022-08-09T03:48:47.842Z,64.7
2022-08-09T03:52:00.002Z,64.8
2022-08-09T03:55:12.135Z,64.6
2022-08-09T03:58:24.263Z,64.9
2022-08-09T04:01:35.440Z,64.8
2022-08-09T04:04:46.613Z,65
2022-08-09T04:07:58.764Z,65.1
2022-08-09T04:11:10.913Z,65.1
2022-08-09T04:14:23.062Z,65.3
2022-08-09T04:17:35.223Z,65.1
2022-08-09T04:20:47.357Z,65
2022-08-09T04:23:59.514Z,65.1
2022-08-09T04:27:11.657Z,66
2022-08-09T04:30:23.813Z,65.9
2022-08-09T04:33:35.961Z,65.6
2022-08-09T04:36:48.120Z,65.6
2022-08-09T04:40:00.257Z,65.6
2022-08-09T04:43:12.412Z,65.3
2022-08-09T04:46:23.586Z,65
2022-08-09T04:49:35.733Z,66
2022-08-09T04:52:47.889Z,66.1
2022-08-09T04:56:00.027Z,66
2022-08-09T04:59:12.186Z,65.5
2022-08-09T05:02:24.331Z,65.4
2022-08-09T05:05:36.480Z,65.1
2022-08-09T05:08:47.666Z,65.5
2022-08-09T05:11:58.818Z,65.4
2022-08-09T05:15:09.999Z,65.3
2022-08-09T05:18:21.172Z,65.4
2022-08-09T05:21:33.321Z,65.4
2022-08-09T05:24:45.479Z,65.9
2022-08-09T05:27:57.618Z,65.8
2022-08-09T05:31:09.778Z,65.6
2022-08-09T05:34:21.907Z,65.8
2022-08-09T05:37:34.067Z,65.8
2022-08-09T05:40:46.218Z,65.3
2022-08-09T05:43:58.374Z,65.9
2022-08-09T05:47:10.525Z,65.4
2022-08-09T05:50:22.676Z,65.3
2022-08-09T05:53:34.822Z,66
2022-08-09T05:56:46.969Z,65.9
2022-08-09T05:59:58.139Z,66.2
2022-08-09T06:03:10.285Z,66.3
2022-08-09T06:06:22.445Z,65.9
2022-08-09T06:09:34.590Z,65.8
2022-08-09T06:12:46.745Z,65.7
2022-08-09T06:15:58.879Z,65.8
2022-08-09T06:19:11.046Z,65.8
2022-08-09T06:22:22.222Z,65.9
2022-08-09T06:25:33.371Z,65.6
2022-08-09T06:28:44.555Z,66.2
2022-08-09T06:31:55.718Z,64.9
2022-08-09T06:35:06.910Z,64.6
2022-08-09T06:38:18.071Z,64.5
2022-08-09T06:41:30.211Z,64.3
2022-08-09T06:44:42.361Z,63.9
2022-08-09T06:47:54.514Z,64.1
2022-08-09T06:51:06.664Z,63
2022-08-09T06:54:18.832Z,63.8
2022-08-09T06:57:30.976Z,63.8
2022-08-09T07:00:43.132Z,63.6
2022-08-09T07:03:55.267Z,63.3
2022-08-09T07:07:07.412Z,62.5
2022-08-09T07:10:19.576Z,62.5
2022-08-09T07:13:31.715Z,63.4
2022-08-09T07:16:43.881Z,63.1
2022-08-09T07:19:55.044Z,63.5
2022-08-09T07:23:07.187Z,63.3
2022-08-09T07:26:19.344Z,62.9
2022-08-09T07:29:31.489Z,62.8
2022-08-09T07:32:43.645Z,62.5
2022-08-09T07:35:55.784Z,62.9
2022-08-09T07:39:07.950Z,63.4
2022-08-09T07:42:19.114Z,62.8
2022-08-09T07:45:30.291Z,62.6
2022-08-09T07:48:42.427Z,61.8
2022-08-09T07:51:54.583Z,61.3
2022-08-09T07:55:06.741Z,61.2
2022-08-09T07:58:18.884Z,61.1
2022-08-09T08:01:31.031Z,60.4
2022-08-09T08:04:43.197Z,59.8
2022-08-09T08:07:55.328Z,59.4
2022-08-09T08:11:07.491Z,58.8
2022-08-09T08:14:19.645Z,59.2
2022-08-09T08:17:31.781Z,58.8
2022-08-09T08:20:43.932Z,58.9
2022-08-09T08:23:56.091Z,58.9
2022-08-09T08:27:07.262Z,59
2022-08-09T08:30:19.408Z,58
2022-08-09T08:33:31.551Z,57.8
2022-08-09T08:36:43.710Z,58.4
2022-08-09T08:39:55.858Z,57.8
2022-08-09T08:43:08.016Z,57.4
2022-08-09T08:46:20.162Z,56.9
2022-08-09T08:49:31.336Z,56.3
2022-08-09T08:52:42.498Z,57.2
2022-08-09T08:55:53.681Z,56.3
2022-08-09T08:59:04.832Z,56
2022-08-09T09:02:16.009Z,55.8
2022-08-09T09:05:27.195Z,54.9
2022-08-09T09:08:39.344Z,55
2022-08-09T09:11:51.484Z,53.8
2022-08-09T09:15:03.641Z,54.2
2022-08-09T09:18:15.779Z,53.5
2022-08-09T09:21:27.930Z,53
2022-08-09T09:24:40.075Z,52.7
2022-08-09T09:27:52.233Z,52.9
2022-08-09T09:31:04.394Z,52.5
2022-08-09T09:34:16.545Z,52.3
2022-08-09T09:37:28.680Z,53
2022-08-09T09:40:40.842Z,53.2
2022-08-09T09:43:52.981Z,53.5
2022-08-09T09:47:04.150Z,51
2022-08-09T09:50:16.299Z,51.1
2022-08-09T09:53:28.452Z,51.4
2022-08-09T09:56:39.659Z,51.3
2022-08-09T09:59:51.806Z,52.3
2022-08-09T10:03:03.964Z,51.4
2022-08-09T10:06:16.101Z,51.1
2022-08-09T10:09:27.290Z,50.6
2022-08-09T10:12:38.454Z,51.4
2022-08-09T10:15:49.628Z,51.5
2022-08-09T10:19:00.800Z,50.1
2022-08-09T10:22:12.952Z,50.5
2022-08-09T10:25:25.102Z,49.5
2022-08-09T10:28:37.247Z,49.9
2022-08-09T10:31:49.385Z,50.4
2022-08-09T10:35:01.537Z,49.9
2022-08-09T10:38:13.693Z,50.2
2022-08-09T10:41:25.854Z,49
2022-08-09T10:44:37.988Z,49.9
2022-08-09T10:47:50.139Z,49.9
2022-08-09T10:51:02.291Z,49.8
2022-08-09T10:54:14.457Z,49.4
2022-08-09T10:57:26.599Z,48.1
2022-08-09T11:00:37.763Z,48
2022-08-09T11:03:49.908Z,48.6
2022-08-09T11:07:02.069Z,48.2
2022-08-09T11:10:14.217Z,48.5
2022-08-09T11:13:26.365Z,48.4
2022-08-09T11:16:38.508Z,48.3
2022-08-09T11:19:50.675Z,49
2022-08-09T11:23:01.844Z,48.9
2022-08-09T11:26:13.011Z,48
2022-08-09T11:29:25.154Z,48.3
2022-08-09T11:32:37.311Z,49.7
2022-08-09T11:35:49.468Z,49
2022-08-09T11:39:01.607Z,49.1
2022-08-09T11:42:13.767Z,48.6
2022-08-09T11:45:25.904Z,47.7
2022-08-09T11:48:38.057Z,47.6
2022-08-09T11:51:50.213Z,47.3
2022-08-09T11:55:02.373Z,46.8
2022-08-09T11:58:14.519Z,46.6
2022-08-09T12:01:26.672Z,46.4
2022-08-09T12:04:38.809Z,47.1
2022-08-09T12:07:49.970Z,45.5
2022-08-09T12:11:02.137Z,46
2022-08-09T12:14:14.290Z,46
2022-08-09T12:17:26.435Z,46.2
2022-08-09T12:20:38.587Z,46.5
2022-08-09T12:23:50.729Z,45.8
2022-08-09T12:27:02.883Z,45.8
2022-08-09T12:30:14.050Z,45
2022-08-09T12:33:25.223Z,44.9
2022-08-09T12:36:37.366Z,45.5
2022-08-09T12:39:49.526Z,44.5
2022-08-09T12:43:01.685Z,44.4
2022-08-09T12:46:13.821Z,43.2
2022-08-09T12:49:25.973Z,43.3
2022-08-09T12:52:38.124Z,44.5
2022-08-09T12:55:50.275Z,46
2022-08-09T12:59:02.437Z,46.7
2022-08-09T13:02:14.593Z,46.1
2022-08-09T13:05:26.746Z,45.6
2022-08-09T13:08:38.889Z,44
2022-08-09T13:11:51.047Z,42.7
2022-08-09T13:15:02.198Z,43.3
2022-08-09T13:18:14.365Z,43.2
2022-08-09T13:21:26.517Z,42.2
2022-08-09T13:24:38.667Z,43.6
2022-08-09T13:27:50.810Z,42.6
2022-08-09T13:31:02.974Z,41
2022-08-09T13:34:15.128Z,40
2022-08-09T13:37:26.296Z,41.8
2022-08-09T13:40:37.456Z,41
2022-08-09T13:43:49.613Z,39.7
2022-08-09T13:47:01.769Z,40.3
2022-08-09T13:50:13.921Z,40.4
2022-08-09T13:53:26.079Z,39.1
2022-08-09T13:56:38.222Z,38.7
2022-08-09T13:59:50.364Z,38
2022-08-09T14:03:02.534Z,39.5
2022-08-09T14:06:14.671Z,39.3
2022-08-09T14:09:26.818Z,38.3
2022-08-09T14:12:38.975Z,38.6
2022-08-09T14:15:51.138Z,38.5
2022-08-09T14:19:03.280Z,37.1
2022-08-09T14:22:14.448Z,38
2022-08-09T14:25:26.597Z,37.3
2022-08-09T14:28:38.748Z,36.4
2022-08-09T14:31:50.901Z,37
2022-08-09T14:35:03.061Z,37.1
2022-08-09T14:38:15.218Z,38
2022-08-09T14:41:27.374Z,38.1
2022-08-09T14:44:38.544Z,37.8
2022-08-09T14:47:49.719Z,37.4
2022-08-09T14:51:00.884Z,37.2
2022-08-09T14:54:12.061Z,38.2
2022-08-09T14:57:23.237Z,36.7
2022-08-09T15:00:34.409Z,38.1
2022-08-09T15:03:45.578Z,37.7
2022-08-09T15:06:56.752Z,38
2022-08-09T15:10:08.900Z,37
2022-08-09T15:13:21.047Z,37.1
2022-08-09T15:16:33.198Z,37.1
2022-08-09T15:19:45.363Z,37.3
2022-08-09T15:22:57.513Z,37.4
2022-08-09T15:26:09.671Z,37.7
2022-08-09T15:29:21.805Z,37.4
2022-08-09T15:32:33.955Z,37.4
2022-08-09T15:35:46.118Z,38
2022-08-09T15:38:58.261Z,37.5
2022-08-09T15:42:10.427Z,37.4
2022-08-09T15:45:22.565Z,37
2022-08-09T15:48:33.741Z,37.4
2022-08-09T15:51:45.904Z,36.7
2022-08-09T15:54:58.037Z,36.9
2022-08-09T15:58:10.190Z,37.4
2022-08-09T16:01:22.354Z,37.8
2022-08-09T16:04:34.492Z,37.5
2022-08-09T16:07:46.649Z,37.8
2022-08-09T16:10:57.822Z,38.5
2022-08-09T16:14:08.993Z,38.2
2022-08-09T16:17:20.182Z,38.5
2022-08-09T16:20:31.356Z,38.6
2022-08-09T16:23:43.488Z,38.2
2022-08-09T16:26:55.644Z,38.1
2022-08-09T16:30:07.808Z,38.2
2022-08-09T16:33:19.946Z,38.8
2022-08-09T16:36:32.098Z,39.4
2022-08-09T16:39:44.252Z,39.6
2022-08-09T16:42:56.398Z,40
2022-08-09T16:46:08.563Z,38.9
2022-08-09T16:49:20.703Z,39.3
2022-08-09T16:52:32.865Z,39.5
2022-08-09T16:55:45.012Z,38.9
2022-08-09T16:58:57.170Z,39.4
2022-08-09T17:02:08.342Z,40.2
2022-08-09T17:05:20.485Z,39.7
2022-08-09T17:08:32.632Z,40.2
2022-08-09T17:11:44.785Z,40.3
2022-08-09T17:14:56.937Z,40.8
2022-08-09T17:21:21.252Z,41.2
2022-08-09T17:24:33.401Z,40.5
2022-08-09T17:27:44.570Z,41.3
2022-08-09T17:30:55.742Z,41.2
2022-08-09T17:34:07.898Z,41.3
2022-08-09T17:37:20.050Z,41.4
2022-08-09T17:40:32.209Z,41.7
2022-08-09T17:43:44.361Z,41.6
2022-08-09T17:46:56.514Z,41.6
2022-08-09T17:50:08.656Z,41.9
2022-08-09T17:53:20.816Z,42
2022-08-09T17:56:32.948Z,42.2
2022-08-09T17:59:45.108Z,42.4
2022-08-09T18:02:57.258Z,42.9
2022-08-09T18:06:09.418Z,42.7
2022-08-09T18:09:21.570Z,42.5
2022-08-09T18:12:32.742Z,42.9
2022-08-09T18:15:44.888Z,43
2022-08-09T18:18:57.036Z,43.1
2022-08-09T18:22:09.194Z,43.3
2022-08-09T18:25:21.340Z,43.5
2022-08-09T18:28:33.482Z,43.6
2022-08-09T18:31:45.635Z,43.6
2022-08-09T18:34:56.814Z,44
2022-08-09T18:38:07.988Z,44.4
2022-08-09T18:41:20.143Z,44.5
2022-08-09T18:44:32.297Z,44.5
2022-08-09T18:47:44.448Z,44.7
2022-08-09T18:50:56.593Z,44.9
2022-08-09T18:54:08.748Z,44.8
2022-08-09T18:57:20.887Z,45.3
2022-08-09T19:00:33.038Z,45.4
2022-08-09T19:03:45.187Z,45.6
2022-08-09T19:06:57.357Z,45.5
2022-08-09T19:10:09.508Z,45.9
2022-08-09T19:13:21.661Z,45.9
2022-08-09T19:16:33.809Z,46.1
2022-08-09T19:19:44.967Z,46.3
2022-08-09T19:22:57.125Z,46.3
2022-08-09T19:26:09.282Z,46.6
2022-08-09T19:29:21.421Z,46.8
2022-08-09T19:32:33.585Z,46.9
2022-08-09T19:35:45.726Z,47.1
2022-08-09T19:38:57.878Z,47.4
2022-08-09T19:42:09.060Z,47.6
2022-08-09T19:45:20.236Z,48
2022-08-09T19:48:31.400Z,48.1
2022-08-09T19:51:42.572Z,48.4
2022-08-09T19:54:53.749Z,48.4
2022-08-09T19:58:04.929Z,49.8
2022-08-09T20:01:16.094Z,49.7
2022-08-09T20:04:27.272Z,49.9
2022-08-09T20:07:38.446Z,50.1
2022-08-09T20:10:49.609Z,50.9
2022-08-09T20:14:01.778Z,51.1
2022-08-09T20:17:13.924Z,50.9
2022-08-09T20:20:26.087Z,50.6
2022-08-09T20:23:38.230Z,50.5
2022-08-09T20:26:50.370Z,50.9
2022-08-09T20:30:02.522Z,51.5
2022-08-09T20:33:14.682Z,51.1
2022-08-09T20:36:26.839Z,51.4
2022-08-09T20:39:38.012Z,51.8
2022-08-09T20:42:50.157Z,51.8
2022-08-09T20:46:02.311Z,51.7
2022-08-09T20:49:14.469Z,51.7
2022-08-09T20:52:26.617Z,52.1
2022-08-09T20:55:38.774Z,52.1
2022-08-09T20:58:50.915Z,51.9
2022-08-09T21:02:03.080Z,52.5
2022-08-09T21:05:15.229Z,52.4
2022-08-09T21:08:27.381Z,52.5
2022-08-09T21:14:50.715Z,52.8
2022-08-09T21:18:01.870Z,53
2022-08-09T21:21:14.023Z,52.9
2022-08-09T21:24:26.178Z,52.8
2022-08-09T21:27:38.323Z,53.1
2022-08-09T21:30:50.473Z,53.7
2022-08-09T21:34:02.640Z,53.5
2022-08-09T21:37:14.782Z,53.4
2022-08-09T21:40:26.926Z,53.7
2022-08-09T21:43:39.089Z,53.8
2022-08-09T21:46:51.245Z,54.2
2022-08-09T21:50:03.387Z,54.4
2022-08-09T21:53:15.531Z,54.6
2022-08-09T21:56:27.701Z,54.8
2022-08-09T21:59:38.866Z,54.7
2022-08-09T22:02:51.006Z,55.1
2022-08-09T22:06:03.160Z,55.3
2022-08-09T22:12:27.466Z,55.7
2022-08-09T22:15:39.614Z,56
2022-08-09T22:18:51.774Z,55.8
2022-08-09T22:22:03.920Z,56
2022-08-09T22:25:15.091Z,56.1
2022-08-09T22:28:26.268Z,56.3
2022-08-09T22:31:37.440Z,56.3
2022-08-09T22:34:48.601Z,56.7
2022-08-09T22:38:00.763Z,56.8
2022-08-09T22:41:12.900Z,57.1
2022-08-09T22:44:25.051Z,57.2
2022-08-09T22:47:37.197Z,57.2
2022-08-09T22:54:01.513Z,57.7
2022-08-09T22:57:13.660Z,57.8
2022-08-09T23:00:25.811Z,57.9
2022-08-09T23:03:37.959Z,57.9
2022-08-09T23:06:50.094Z,58.3
2022-08-09T23:10:02.255Z,58.4
2022-08-09T23:13:14.398Z,58.6
2022-08-09T23:16:25.564Z,58.9
2022-08-09T23:19:37.717Z,59.1
2022-08-09T23:22:49.862Z,59.4
2022-08-09T23:26:02.015Z,59.4
2022-08-09T23:29:14.171Z,59.9
2022-08-09T23:32:26.322Z,59.9
2022-08-09T23:35:38.468Z,60.3
2022-08-09T23:38:49.654Z,60.5
2022-08-09T23:42:00.809Z,60.7
2022-08-09T23:45:11.994Z,61.2
2022-08-09T23:48:23.149Z,61.5
2022-08-09T23:51:35.312Z,61.6
2022-08-09T23:54:47.469Z,61.7
2022-08-09T23:57:59.605Z,62.2
